createdAt,value
2023-05-13T00:01:20.277Z,98373.34
2023-05-13T00:04:27.081Z,98366.94
2023-05-13T00:07:33.034Z,98372.25
2023-05-13T00:10:40.180Z,98368.56
2023-05-13T00:13:46.202Z,98364.72
2023-05-13T00:16:55.978Z,98366.44
2023-05-13T00:20:01.887Z,98366.91
2023-05-13T00:23:08.974Z,98369.78
2023-05-13T00:26:15.079Z,98364.44
2023-05-13T00:29:24.939Z,98373.72
2023-05-13T00:32:33.470Z,98364.44
2023-05-13T00:35:40.766Z,98369.13
2023-05-13T00:38:47.980Z,98371.34
2023-05-13T00:41:55.373Z,98362.06
2023-05-13T00:45:01.410Z,98371.44
2023-05-13T00:48:12.479Z,98372.34
2023-05-13T00:51:18.979Z,98372.19
2023-05-13T00:54:25.724Z,98375.50
2023-05-13T00:57:32.777Z,98376.78
2023-05-13T01:00:51.602Z,98381.13
2023-05-13T01:04:17.971Z,98386.09
2023-05-13T01:07:42.961Z,98384.88
2023-05-13T01:10:57.641Z,98384.66
2023-05-13T01:14:14.768Z,98383.66
2023-05-13T01:17:32.160Z,98395.34
2023-05-13T01:20:45.879Z,98399.53
2023-05-13T01:23:54.521Z,98398.19
2023-05-13T01:27:10.203Z,98398.63
2023-05-13T01:30:17.642Z,98395.13
2023-05-13T01:33:25.827Z,98386.56
2023-05-13T01:36:32.470Z,98397.97
2023-05-13T01:39:43.332Z,98397.09
2023-05-13T01:42:56.370Z,98390.25
2023-05-13T01:46:05.010Z,98393.00
2023-05-13T01:49:11.155Z,98392.41
2023-05-13T01:52:18.130Z,98390.13
2023-05-13T01:55:27.487Z,98383.31
2023-05-13T01:58:36.501Z,98389.50
2023-05-13T02:01:43.139Z,98396.16
2023-05-13T02:04:50.044Z,98390.97
2023-05-13T02:08:03.050Z,98393.16
2023-05-13T02:11:18.759Z,98393.53
2023-05-13T02:14:24.875Z,98388.06
2023-05-13T02:17:31.771Z,98386.84
2023-05-13T02:20:37.806Z,98388.94
2023-05-13T02:23:44.592Z,98392.09
2023-05-13T02:26:53.323Z,98393.91
2023-05-13T02:30:00.224Z,98397.44
2023-05-13T02:33:10.725Z,98394.06
2023-05-13T02:36:17.761Z,98397.91
2023-05-13T02:39:24.368Z,98409.38
2023-05-13T02:42:36.171Z,98409.41
2023-05-13T02:45:44.570Z,98398.84
2023-05-13T02:48:51.552Z,98405.69
2023-05-13T02:51:57.550Z,98407.50
2023-05-13T02:55:13.316Z,98407.97
2023-05-13T02:58:21.994Z,98412.47
2023-05-13T03:01:29.616Z,98411.81
2023-05-13T03:04:35.529Z,98411.63
2023-05-13T03:07:42.305Z,98415.94
2023-05-13T03:10:51.745Z,98423.75
2023-05-13T03:14:05.952Z,98417.63
2023-05-13T03:17:15.191Z,98419.63
2023-05-13T03:20:28.690Z,98421.63
2023-05-13T03:23:38.498Z,98424.44
2023-05-13T03:26:47.180Z,98426.44
2023-05-13T03:30:07.122Z,98427.25
2023-05-13T03:33:20.886Z,98432.75
2023-05-13T03:36:27.283Z,98428.13
2023-05-13T03:39:34.503Z,98435.41
2023-05-13T03:42:40.723Z,98441.56
2023-05-13T03:45:51.847Z,98440.56
2023-05-13T03:49:01.270Z,98448.53
2023-05-13T03:52:10.975Z,98446.06
2023-05-13T03:55:17.015Z,98450.53
2023-05-13T03:58:24.213Z,98456.00
2023-05-13T04:01:33.480Z,98455.03
2023-05-13T04:04:40.514Z,98454.22
2023-05-13T04:07:46.799Z,98456.34
2023-05-13T04:10:53.771Z,98464.47
2023-05-13T04:13:59.982Z,98459.69
2023-05-13T04:17:09.841Z,98468.47
2023-05-13T04:20:16.371Z,98470.97
2023-05-13T04:23:23.095Z,98466.66
2023-05-13T04:26:29.302Z,98469.63
2023-05-13T04:29:36.178Z,98469.13
2023-05-13T04:32:44.768Z,98482.06
2023-05-13T04:35:53.209Z,98475.28
2023-05-13T04:38:59.109Z,98483.25
2023-05-13T04:42:06.439Z,98485.97
2023-05-13T04:45:17.975Z,98482.72
2023-05-13T04:48:37.609Z,98495.06
2023-05-13T04:51:43.885Z,98489.03
2023-05-13T04:54:53.181Z,98493.19
2023-05-13T04:57:59.295Z,98495.53
2023-05-13T05:01:06.370Z,98494.69
2023-05-13T05:04:16.376Z,98491.19
2023-05-13T05:07:26.408Z,98488.16
2023-05-13T05:10:32.548Z,98489.50
2023-05-13T05:13:42.434Z,98498.66
2023-05-13T05:16:49.232Z,98500.13
2023-05-13T05:19:59.526Z,98499.03
2023-05-13T05:23:05.854Z,98505.06
2023-05-13T05:26:13.476Z,98505.75
2023-05-13T05:29:29.190Z,98509.19
2023-05-13T05:32:36.957Z,98507.19
2023-05-13T05:35:47.052Z,98520.81
2023-05-13T05:38:56.631Z,98513.19
2023-05-13T05:42:19.976Z,98512.94
2023-05-13T05:45:26.784Z,98516.56
2023-05-13T05:48:34.605Z,98518.91
2023-05-13T05:51:44.791Z,98511.41
2023-05-13T05:54:50.981Z,98518.31
2023-05-13T05:57:57.874Z,98516.59
2023-05-13T06:01:04.673Z,98519.63
2023-05-13T06:04:11.530Z,98515.19
2023-05-13T06:07:20.283Z,98519.78
2023-05-13T06:10:27.113Z,98526.03
2023-05-13T06:13:33.506Z,98526.03
2023-05-13T06:16:47.239Z,98529.41
2023-05-13T06:19:59.683Z,98529.72
2023-05-13T06:23:09.031Z,98527.53
2023-05-13T06:26:15.066Z,98532.97
2023-05-13T06:29:21.872Z,98523.78
2023-05-13T06:32:27.883Z,98530.19
2023-05-13T06:35:34.861Z,98528.19
2023-05-13T06:38:46.146Z,98524.63
2023-05-13T06:41:56.941Z,98528.44
2023-05-13T06:45:11.993Z,98522.78
2023-05-13T06:48:22.403Z,98528.47
2023-05-13T06:51:30.841Z,98523.41
2023-05-13T06:54:40.520Z,98528.94
2023-05-13T06:57:47.596Z,98531.16
2023-05-13T07:00:59.950Z,98533.41
2023-05-13T07:04:18.323Z,98523.47
2023-05-13T07:07:31.207Z,98516.56
2023-05-13T07:10:40.232Z,98520.22
2023-05-13T07:13:47.509Z,98513.63
2023-05-13T07:16:53.672Z,98512.66
2023-05-13T07:20:00.522Z,98505.91
2023-05-13T07:23:09.115Z,98507.84
2023-05-13T07:26:18.566Z,98506.03
2023-05-13T07:29:25.907Z,98506.25
2023-05-13T07:32:38.357Z,98492.72
2023-05-13T07:35:44.411Z,98502.38
2023-05-13T07:38:51.273Z,98499.31
2023-05-13T07:41:59.849Z,98498.88
2023-05-13T07:45:07.552Z,98495.75
2023-05-13T07:48:18.643Z,98494.81
2023-05-13T07:51:25.582Z,98497.13
2023-05-13T07:54:32.165Z,98490.63
2023-05-13T07:57:41.667Z,98492.53
2023-05-13T08:00:51.701Z,98494.94
2023-05-13T08:03:58.848Z,98486.91
2023-05-13T08:07:05.269Z,98487.63
2023-05-13T08:10:12.691Z,98491.94
2023-05-13T08:13:22.167Z,98494.78
2023-05-13T08:16:30.721Z,98496.31
2023-05-13T08:19:37.041Z,98494.47
2023-05-13T08:22:44.134Z,98500.28
2023-05-13T08:25:50.269Z,98489.59
2023-05-13T08:29:00.301Z,98500.31
2023-05-13T08:32:09.856Z,98497.44
2023-05-13T08:35:17.076Z,98499.38
2023-05-13T08:38:35.197Z,98506.50
2023-05-13T08:41:45.319Z,98501.25
2023-05-13T08:44:56.366Z,98503.53
2023-05-13T08:48:13.318Z,98496.88
2023-05-13T08:51:21.771Z,98490.75
2023-05-13T08:54:31.420Z,98491.16
2023-05-13T08:57:37.505Z,98497.03
2023-05-13T09:00:55.741Z,98500.47
2023-05-13T09:04:07.637Z,98487.72
2023-05-13T09:07:15.118Z,98492.44
2023-05-13T09:10:23.354Z,98488.31
2023-05-13T09:13:30.313Z,98482.84
2023-05-13T09:16:39.928Z,98469.97
2023-05-13T09:19:46.814Z,98484.13
2023-05-13T09:22:56.028Z,98482.84
2023-05-13T09:26:03.172Z,98478.72
2023-05-13T09:29:24.332Z,98480.84
2023-05-13T09:32:34.302Z,98484.97
2023-05-13T09:35:43.823Z,98479.88
2023-05-13T09:38:56.396Z,98482.75
2023-05-13T09:42:05.604Z,98474.84
2023-05-13T09:45:16.011Z,98478.16
2023-05-13T09:48:25.800Z,98482.50
2023-05-13T09:51:34.419Z,98475.38
2023-05-13T09:54:41.125Z,98485.00
2023-05-13T09:57:49.809Z,98486.25
2023-05-13T10:00:55.997Z,98481.22
2023-05-13T10:04:06.629Z,98480.66
2023-05-13T10:07:16.058Z,98470.13
2023-05-13T10:10:26.261Z,98471.56
2023-05-13T10:13:37.297Z,98484.06
2023-05-13T10:16:44.616Z,98480.59
2023-05-13T10:19:55.075Z,98475.81
2023-05-13T10:23:02.551Z,98468.59
2023-05-13T10:26:10.735Z,98469.75
2023-05-13T10:29:19.553Z,98473.75
2023-05-13T10:32:28.682Z,98476.50
2023-05-13T10:35:46.485Z,98473.81
2023-05-13T10:39:27.099Z,98458.41
2023-05-13T10:43:02.814Z,98472.16
2023-05-13T10:46:14.500Z,98469.78
2023-05-13T10:49:21.589Z,98472.41
2023-05-13T10:52:46.926Z,98476.25
2023-05-13T10:55:59.576Z,98478.22
2023-05-13T10:59:08.141Z,98468.59
2023-05-13T11:02:25.457Z,98465.09
2023-05-13T11:05:33.261Z,98471.22
2023-05-13T11:08:45.702Z,98462.94
2023-05-13T11:11:56.865Z,98456.56
2023-05-13T11:15:03.853Z,98460.06
2023-05-13T11:18:09.909Z,98439.88
2023-05-13T11:21:16.894Z,98477.16
2023-05-13T11:24:27.341Z,98474.31
2023-05-13T11:27:42.238Z,98489.75
2023-05-13T11:30:58.804Z,98488.81
2023-05-13T11:34:14.301Z,98483.38
2023-05-13T11:37:23.520Z,98478.38
2023-05-13T11:40:35.955Z,98495.97
2023-05-13T11:43:44.603Z,98485.69
2023-05-13T11:46:58.336Z,98486.13
2023-05-13T11:50:04.524Z,98492.34
2023-05-13T11:53:11.442Z,98489.19
2023-05-13T11:56:20.117Z,98487.44
2023-05-13T11:59:33.306Z,98483.84
2023-05-13T12:02:46.612Z,98495.75
2023-05-13T12:05:54.031Z,98491.34
2023-05-13T12:09:07.742Z,98487.81
2023-05-13T12:12:17.935Z,98498.47
2023-05-13T12:15:26.059Z,98492.75
2023-05-13T12:18:34.046Z,98498.38
2023-05-13T12:21:42.013Z,98484.97
2023-05-13T12:24:48.935Z,98480.53
2023-05-13T12:27:58.070Z,98471.22
2023-05-13T12:31:07.501Z,98474.56
2023-05-13T12:34:15.058Z,98475.44
2023-05-13T12:37:22.507Z,98476.03
2023-05-13T12:40:30.900Z,98469.09
2023-05-13T12:43:45.083Z,98476.72
2023-05-13T12:46:55.593Z,98485.31
2023-05-13T12:50:04.041Z,98449.25
2023-05-13T12:53:16.453Z,98485.47
2023-05-13T12:56:25.517Z,98484.25
2023-05-13T12:59:35.021Z,98476.41
2023-05-13T13:02:46.378Z,98481.50
2023-05-13T13:05:52.746Z,98478.66
2023-05-13T13:08:59.873Z,98482.31
2023-05-13T13:12:06.022Z,98477.38
2023-05-13T13:15:16.125Z,98477.13
2023-05-13T13:18:22.287Z,98481.06
2023-05-13T13:21:29.406Z,98463.53
2023-05-13T13:24:35.896Z,98470.00
2023-05-13T13:27:42.628Z,98475.72
2023-05-13T13:30:51.353Z,98465.38
2023-05-13T13:34:04.474Z,98458.44
2023-05-13T13:37:13.788Z,98454.81
2023-05-13T13:40:20.729Z,98455.34
2023-05-13T13:43:27.172Z,98456.28
2023-05-13T13:46:36.701Z,98453.66
2023-05-13T13:49:42.626Z,98459.44
2023-05-13T13:52:49.439Z,98459.19
2023-05-13T13:55:55.464Z,98455.91
2023-05-13T13:59:08.507Z,98450.91
2023-05-13T14:02:26.102Z,98450.88
2023-05-13T14:05:33.433Z,98457.53
2023-05-13T14:08:39.348Z,98457.00
2023-05-13T14:11:46.404Z,98456.09
2023-05-13T14:14:52.334Z,98462.72
2023-05-13T14:18:01.847Z,98460.84
2023-05-13T14:21:08.320Z,98464.50
2023-05-13T14:24:16.303Z,98470.16
2023-05-13T14:27:24.917Z,98472.97
2023-05-13T14:30:31.784Z,98469.69
2023-05-13T14:33:43.732Z,98461.56
2023-05-13T14:36:50.514Z,98463.41
2023-05-13T14:39:56.442Z,98459.88
2023-05-13T14:43:05.070Z,98462.31
2023-05-13T14:46:11.723Z,98463.78
2023-05-13T14:49:27.530Z,98466.56
2023-05-13T14:52:36.166Z,98471.34
2023-05-13T14:55:43.064Z,98472.47
2023-05-13T14:58:53.306Z,98476.75
2023-05-13T15:02:04.554Z,98473.31
2023-05-13T15:05:14.049Z,98473.09
2023-05-13T15:08:21.573Z,98467.31
2023-05-13T15:11:29.198Z,98465.19
2023-05-13T15:14:36.034Z,98461.59
2023-05-13T15:17:42.303Z,98460.53
2023-05-13T15:20:51.925Z,98474.22
2023-05-13T15:24:01.015Z,98469.34
2023-05-13T15:27:08.682Z,98471.84
2023-05-13T15:30:16.333Z,98467.31
2023-05-13T15:33:23.102Z,98469.38
2023-05-13T15:36:33.097Z,98461.31
2023-05-13T15:39:39.995Z,98467.28
2023-05-13T15:42:46.044Z,98470.59
2023-05-13T15:45:53.844Z,98458.78
2023-05-13T15:48:59.774Z,98461.91
2023-05-13T15:52:11.599Z,98458.16
2023-05-13T15:55:25.726Z,98454.88
2023-05-13T15:58:34.552Z,98459.41
2023-05-13T16:01:42.119Z,98456.94
2023-05-13T16:04:51.525Z,98448.22
2023-05-13T16:08:00.446Z,98456.72
2023-05-13T16:11:07.377Z,98452.41
2023-05-13T16:14:13.434Z,98449.75
2023-05-13T16:17:33.333Z,98445.81
2023-05-13T16:20:39.306Z,98452.44
2023-05-13T16:23:48.600Z,98445.81
2023-05-13T16:26:54.799Z,98446.19
2023-05-13T16:30:12.629Z,98445.78
2023-05-13T16:33:18.791Z,98447.44
2023-05-13T16:36:27.084Z,98453.22
2023-05-13T16:39:48.632Z,98445.63
2023-05-13T16:43:02.512Z,98440.47
2023-05-13T16:46:09.760Z,98434.09
2023-05-13T16:49:16.610Z,98445.69
2023-05-13T16:52:22.614Z,98435.34
2023-05-13T16:55:33.361Z,98444.88
2023-05-13T16:58:39.533Z,98436.38
2023-05-13T17:01:46.495Z,98434.13
2023-05-13T17:05:01.777Z,98429.09
2023-05-13T17:08:11.496Z,98434.47
2023-05-13T17:11:19.918Z,98439.44
2023-05-13T17:14:28.484Z,98445.22
2023-05-13T17:17:37.730Z,98446.47
2023-05-13T17:20:45.998Z,98434.25
2023-05-13T17:23:53.762Z,98441.22
2023-05-13T17:27:03.219Z,98449.91
2023-05-13T17:30:19.389Z,98442.88
2023-05-13T17:33:26.237Z,98444.91
2023-05-13T17:36:35.222Z,98448.59
2023-05-13T17:39:41.952Z,98447.31
2023-05-13T17:42:52.594Z,98444.41
2023-05-13T17:45:59.735Z,98446.63
2023-05-13T17:49:07.396Z,98443.03
2023-05-13T17:52:14.236Z,98441.72
2023-05-13T17:55:20.440Z,98449.56
2023-05-13T17:58:30.078Z,98447.47
2023-05-13T18:01:36.005Z,98453.41
2023-05-13T18:04:42.917Z,98459.13
2023-05-13T18:07:48.861Z,98453.53
2023-05-13T18:11:09.186Z,98460.28
2023-05-13T18:14:20.510Z,98462.56
2023-05-13T18:17:27.660Z,98467.13
2023-05-13T18:20:33.750Z,98467.72
2023-05-13T18:23:40.816Z,98469.38
2023-05-13T18:26:46.823Z,98477.06
2023-05-13T18:29:56.304Z,98477.84
2023-05-13T18:33:02.395Z,98469.16
2023-05-13T18:36:10.988Z,98477.13
2023-05-13T18:39:17.138Z,98465.34
2023-05-13T18:42:25.547Z,98492.09
2023-05-13T18:45:34.294Z,98482.81
2023-05-13T18:48:41.374Z,98481.78
2023-05-13T18:51:47.775Z,98478.47
2023-05-13T18:55:08.502Z,98489.56
2023-05-13T18:58:14.797Z,98487.66
2023-05-13T19:01:24.425Z,98495.34
2023-05-13T19:04:31.254Z,98488.19
2023-05-13T19:07:38.459Z,98495.94
2023-05-13T19:10:44.650Z,98498.50
2023-05-13T19:14:07.825Z,98497.53
2023-05-13T19:17:18.532Z,98494.22
2023-05-13T19:20:32.639Z,98496.63
2023-05-13T19:23:43.323Z,98498.16
2023-05-13T19:26:50.532Z,98500.56
2023-05-13T19:29:56.467Z,98495.00
2023-05-13T19:33:08.317Z,98503.56
2023-05-13T19:36:19.491Z,98508.69
2023-05-13T19:39:26.428Z,98505.72
2023-05-13T19:42:35.958Z,98513.47
2023-05-13T19:45:43.137Z,98504.09
2023-05-13T19:48:55.966Z,98512.19
2023-05-13T19:52:02.897Z,98508.59
2023-05-13T19:55:11.043Z,98501.38
2023-05-13T19:58:17.974Z,98503.69
2023-05-13T20:01:25.172Z,98499.63
2023-05-13T20:04:34.723Z,98499.75
2023-05-13T20:07:50.751Z,98499.03
2023-05-13T20:11:11.008Z,98483.81
2023-05-13T20:14:18.433Z,98493.63
2023-05-13T20:17:33.490Z,98484.78
2023-05-13T20:20:42.193Z,98496.53
2023-05-13T20:23:48.902Z,98491.41
2023-05-13T20:26:54.860Z,98492.03
2023-05-13T20:30:02.455Z,98484.91
2023-05-13T20:33:08.605Z,98477.44
2023-05-13T20:36:18.163Z,98483.81
2023-05-13T20:39:24.303Z,98478.22
2023-05-13T20:42:31.041Z,98480.56
2023-05-13T20:45:39.976Z,98475.75
2023-05-13T20:48:47.782Z,98475.63
2023-05-13T20:51:56.597Z,98478.63
2023-05-13T20:55:03.661Z,98482.66
2023-05-13T20:58:12.404Z,98482.66
2023-05-13T21:01:19.315Z,98487.19
2023-05-13T21:04:26.470Z,98471.75
2023-05-13T21:07:37.948Z,98474.06
2023-05-13T21:10:44.164Z,98472.38
2023-05-13T21:13:51.337Z,98476.75
2023-05-13T21:16:57.408Z,98475.25
2023-05-13T21:20:04.697Z,98472.25
2023-05-13T21:23:16.003Z,98477.91
2023-05-13T21:26:23.432Z,98473.75
2023-05-13T21:29:34.534Z,98475.22
2023-05-13T21:32:41.410Z,98468.72
2023-05-13T21:35:47.396Z,98469.38
2023-05-13T21:38:56.950Z,98465.72
2023-05-13T21:42:03.698Z,98465.19
2023-05-13T21:45:12.272Z,98469.69
2023-05-13T21:48:18.473Z,98460.06
2023-05-13T21:51:26.080Z,98461.09
2023-05-13T21:54:34.678Z,98462.72
2023-05-13T21:57:41.553Z,98461.59
2023-05-13T22:00:47.559Z,98465.41
2023-05-13T22:03:54.311Z,98460.91
2023-05-13T22:07:00.356Z,98470.06
2023-05-13T22:10:11.725Z,98457.63
2023-05-13T22:13:17.728Z,98469.28
2023-05-13T22:16:24.819Z,98467.78
2023-05-13T22:19:31.069Z,98460.97
2023-05-13T22:22:37.899Z,98458.16
2023-05-13T22:25:46.534Z,98450.16
2023-05-13T22:29:47.760Z,98449.84
2023-05-13T22:32:56.164Z,98442.72
2023-05-13T22:36:02.122Z,98455.56
2023-05-13T22:39:09.007Z,98458.91
2023-05-13T22:42:15.082Z,98447.63
2023-05-13T22:45:28.780Z,98449.13
2023-05-13T22:48:34.920Z,98455.47
2023-05-13T22:51:41.733Z,98453.47
2023-05-13T22:54:47.861Z,98453.00
2023-05-13T22:57:57.258Z,98443.03
2023-05-13T23:01:05.792Z,98442.72
2023-05-13T23:04:12.568Z,98448.03
2023-05-13T23:07:18.441Z,98450.69
2023-05-13T23:10:25.484Z,98448.03
2023-05-13T23:13:31.861Z,98441.53
2023-05-13T23:16:41.584Z,98445.69
2023-05-13T23:19:47.696Z,98438.06
2023-05-13T23:22:57.592Z,98436.75
2023-05-13T23:26:04.590Z,98441.41
2023-05-13T23:29:11.583Z,98429.59
2023-05-13T23:32:20.272Z,98430.09
2023-05-13T23:35:26.969Z,98427.44
2023-05-13T23:38:32.901Z,98432.25
2023-05-13T23:41:39.589Z,98418.13
2023-05-13T23:44:46.464Z,98424.44
2023-05-13T23:47:56.511Z,98415.13
2023-05-13T23:51:02.380Z,98410.13
2023-05-13T23:54:09.255Z,98417.06
2023-05-13T23:57:15.923Z,98418.91
